createdAt,value
2022-10-11T00:00:39.972Z,74.48
2022-10-11T00:01:39.969Z,74.38
2022-10-11T00:02:39.951Z,74.28
2022-10-11T00:03:39.937Z,74.18
2022-10-11T00:04:39.927Z,74.52
2022-10-11T00:05:39.917Z,74.52
2022-10-11T00:06:39.901Z,74.41
2022-10-11T00:07:39.900Z,74.52
2022-10-11T00:08:39.883Z,74.32
2022-10-11T00:09:39.887Z,74.11
2022-10-11T00:10:39.863Z,74.11
2022-10-11T00:11:39.851Z,73.8
2022-10-11T00:12:39.844Z,74.45
2022-10-11T00:13:39.827Z,74.11
2022-10-11T00:14:39.820Z,73.8
2022-10-11T00:15:39.812Z,73.8
2022-10-11T00:16:39.797Z,73.84
2022-10-11T00:17:39.836Z,73.84
2022-10-11T00:18:39.779Z,74.04
2022-10-11T00:19:39.775Z,74.04
2022-10-11T00:20:39.759Z,73.74
2022-10-11T00:21:39.745Z,73.74
2022-10-11T00:22:39.736Z,73.84
2022-10-11T00:23:39.745Z,73.84
2022-10-11T00:24:39.720Z,73.64
2022-10-11T00:25:39.702Z,74.04
2022-10-11T00:26:39.691Z,73.94
2022-10-11T00:27:39.686Z,74.15
2022-10-11T00:28:39.673Z,74.04
2022-10-11T00:29:39.661Z,74.15
2022-10-11T00:30:39.650Z,74.04
2022-10-11T00:31:39.639Z,74.04
2022-10-11T00:32:39.630Z,73.94
2022-10-11T00:33:39.617Z,73.94
2022-10-11T00:34:39.622Z,73.84
2022-10-11T00:35:39.597Z,73.94
2022-10-11T00:36:39.588Z,73.84
2022-10-11T00:37:39.579Z,74.04
2022-10-11T00:38:39.573Z,73.94
2022-10-11T00:39:39.568Z,73.84
2022-10-11T00:40:39.549Z,73.74
2022-10-11T00:41:39.538Z,73.74
2022-10-11T00:42:39.536Z,73.64
2022-10-11T00:43:39.515Z,73.74
2022-10-11T00:44:39.506Z,73.43
2022-10-11T00:45:39.492Z,73.77
2022-10-11T00:46:39.488Z,73.77
2022-10-11T00:47:39.471Z,73.77
2022-10-11T00:48:39.471Z,73.64
2022-10-11T00:49:39.453Z,73.36
2022-10-11T00:50:39.443Z,73.33
2022-10-11T00:51:39.431Z,73.47
2022-10-11T00:52:39.418Z,74.08
2022-10-11T00:53:39.408Z,73.74
2022-10-11T00:54:39.399Z,73.43
2022-10-11T00:55:39.391Z,73.33
2022-10-11T00:56:39.378Z,73.26
2022-10-11T00:57:39.364Z,73.16
2022-10-11T00:58:39.361Z,73.26
2022-10-11T00:59:39.347Z,73.36
2022-10-11T01:00:39.333Z,73.26
2022-10-11T01:01:39.325Z,73.47
2022-10-11T01:02:39.315Z,73.16
2022-10-11T01:03:39.309Z,73.57
2022-10-11T01:04:39.290Z,73.67
2022-10-11T01:05:39.290Z,73.57
2022-10-11T01:06:39.279Z,73.36
2022-10-11T01:07:39.261Z,73.47
2022-10-11T01:08:39.254Z,73.57
2022-10-11T01:09:39.241Z,73.77
2022-10-11T01:10:39.231Z,73.88
2022-10-11T01:11:39.222Z,73.36
2022-10-11T01:12:39.209Z,73.16
2022-10-11T01:13:39.199Z,73.19
2022-10-11T01:14:39.187Z,73.4
2022-10-11T01:15:39.175Z,73.26
2022-10-11T01:16:39.166Z,73.16
2022-10-11T01:17:39.177Z,73.26
2022-10-11T01:18:39.157Z,73.06
2022-10-11T01:19:39.136Z,72.89
2022-10-11T01:20:39.126Z,73.71
2022-10-11T01:21:39.112Z,73.4
2022-10-11T01:22:39.101Z,73.4
2022-10-11T01:23:39.091Z,73.3
2022-10-11T01:24:39.115Z,73.6
2022-10-11T01:25:39.083Z,74.01
2022-10-11T01:26:39.079Z,73.6
2022-10-11T01:27:39.052Z,73.4
2022-10-11T01:28:39.041Z,73.5
2022-10-11T01:29:39.033Z,73.5
2022-10-11T01:30:39.023Z,73.81
2022-10-11T01:31:39.033Z,73.71
2022-10-11T01:32:39.002Z,73.47
2022-10-11T01:33:38.987Z,73.26
2022-10-11T01:34:38.976Z,73.06
2022-10-11T01:35:38.971Z,72.96
2022-10-11T01:36:38.961Z,72.65
2022-10-11T01:37:38.949Z,72.55
2022-10-11T01:38:38.945Z,72.48
2022-10-11T01:39:38.926Z,73.36
2022-10-11T01:40:38.918Z,74.97
2022-10-11T01:41:38.922Z,76.03
2022-10-11T01:42:38.894Z,76.53
2022-10-11T01:43:38.886Z,77.08
2022-10-11T01:44:38.874Z,77.35
2022-10-11T01:45:38.864Z,76.9
2022-10-11T01:46:38.855Z,76.4
2022-10-11T01:47:38.851Z,75.95
2022-10-11T01:48:38.864Z,75.54
2022-10-11T01:49:38.835Z,75.1
2022-10-11T01:50:38.810Z,75.13
2022-10-11T01:51:38.800Z,74.79
2022-10-11T01:52:38.796Z,74.79
2022-10-11T01:53:38.783Z,74.69
2022-10-11T01:54:38.773Z,74.59
2022-10-11T01:55:38.761Z,74.35
2022-10-11T01:56:38.750Z,74.05
2022-10-11T01:57:38.741Z,74.05
2022-10-11T01:58:38.734Z,73.84
2022-10-11T01:59:38.718Z,73.94
2022-10-11T02:00:38.717Z,73.94
2022-10-11T02:01:38.698Z,74.18
2022-10-11T02:02:38.695Z,74.38
2022-10-11T02:03:38.676Z,74.59
2022-10-11T02:04:38.683Z,74.79
2022-10-11T02:05:38.659Z,74.69
2022-10-11T02:06:38.645Z,74.49
2022-10-11T02:07:38.637Z,74.52
2022-10-11T02:08:38.627Z,75.13
2022-10-11T02:09:38.613Z,75.58
2022-10-11T02:10:38.609Z,75.65
2022-10-11T02:11:38.597Z,75.37
2022-10-11T02:12:38.585Z,75.37
2022-10-11T02:13:38.574Z,75.48
2022-10-11T02:14:38.565Z,75.27
2022-10-11T02:15:38.557Z,75.37
2022-10-11T02:16:38.551Z,75.37
2022-10-11T02:17:38.533Z,75.24
2022-10-11T02:18:38.520Z,75.13
2022-10-11T02:19:38.515Z,75.04
2022-10-11T02:20:38.514Z,74.93
2022-10-11T02:21:38.495Z,74.83
2022-10-11T02:22:38.518Z,74.63
2022-10-11T02:23:38.489Z,74.52
2022-10-11T02:24:38.468Z,74.63
2022-10-11T02:25:38.469Z,74.63
2022-10-11T02:26:38.438Z,74.56
2022-10-11T02:27:38.426Z,74.76
2022-10-11T02:28:38.415Z,74.76
2022-10-11T02:29:38.409Z,74.76
2022-10-11T02:30:38.397Z,74.63
2022-10-11T02:31:38.460Z,74.52
2022-10-11T02:32:38.376Z,74.63
2022-10-11T02:33:38.363Z,74.32
2022-10-11T02:34:38.356Z,73.6
2022-10-11T02:35:38.348Z,73.71
2022-10-11T02:36:38.334Z,73.94
2022-10-11T02:37:38.322Z,74.01
2022-10-11T02:38:38.371Z,73.81
2022-10-11T02:39:38.337Z,73.4
2022-10-11T02:40:38.292Z,73.64
2022-10-11T02:41:38.285Z,73.91
2022-10-11T02:42:38.276Z,73.81
2022-10-11T02:43:38.259Z,73.5
2022-10-11T02:44:38.259Z,73.74
2022-10-11T02:45:38.242Z,73.98
2022-10-11T02:46:38.228Z,74.84
2022-10-11T02:47:38.220Z,75.59
2022-10-11T02:48:38.225Z,76.09
2022-10-11T02:49:38.193Z,76.3
2022-10-11T02:50:38.205Z,76.37
2022-10-11T02:51:38.190Z,75.96
2022-10-11T02:52:38.188Z,75.41
2022-10-11T02:53:38.159Z,75.51
2022-10-11T02:54:38.150Z,75.34
2022-10-11T02:55:38.133Z,75.89
2022-10-11T02:56:38.121Z,76.26
2022-10-11T02:57:38.117Z,75.96
2022-10-11T02:58:38.097Z,76.26
2022-10-11T02:59:38.099Z,75.55
2022-10-11T03:00:38.080Z,75.48
2022-10-11T03:01:38.067Z,76.09
2022-10-11T03:02:38.061Z,75.85
2022-10-11T03:03:38.059Z,75.55
2022-10-11T03:04:38.039Z,75.45
2022-10-11T03:05:38.036Z,75.24
2022-10-11T03:06:38.015Z,75.04
2022-10-11T03:07:38.002Z,74.93
2022-10-11T03:08:38.011Z,75.14
2022-10-11T03:09:37.987Z,74.73
2022-10-11T03:10:37.974Z,74.84
2022-10-11T03:11:37.963Z,74.93
2022-10-11T03:12:37.950Z,75.45
2022-10-11T03:13:37.937Z,75.34
2022-10-11T03:14:37.929Z,75.45
2022-10-11T03:15:37.920Z,75.24
2022-10-11T03:16:37.927Z,75.31
2022-10-11T03:17:37.912Z,75.14
2022-10-11T03:18:37.889Z,75.14
2022-10-11T03:19:37.878Z,74.93
2022-10-11T03:20:37.878Z,74.84
2022-10-11T03:21:37.856Z,75.14
2022-10-11T03:22:37.851Z,75.34
2022-10-11T03:23:37.841Z,75.45
2022-10-11T03:24:37.825Z,75.04
2022-10-11T03:25:37.811Z,75.24
2022-10-11T03:26:37.800Z,75.45
2022-10-11T03:27:37.796Z,75.75
2022-10-11T03:28:37.784Z,75.55
2022-10-11T03:29:37.781Z,75.21
2022-10-11T03:30:37.762Z,75
2022-10-11T03:31:37.755Z,74.8
2022-10-11T03:32:37.740Z,74.52
2022-10-11T03:33:37.728Z,74.69
2022-10-11T03:34:37.717Z,74.49
2022-10-11T03:35:37.720Z,74.11
2022-10-11T03:36:37.698Z,74.32
2022-10-11T03:37:37.685Z,74.32
2022-10-11T03:38:37.676Z,74.43
2022-10-11T03:39:37.663Z,74.35
2022-10-11T03:40:37.651Z,74.76
2022-10-11T03:41:37.655Z,74.76
2022-10-11T03:42:37.674Z,74.87
2022-10-11T03:43:37.625Z,74.66
2022-10-11T03:44:37.608Z,75.07
2022-10-11T03:45:37.598Z,74.8
2022-10-11T03:46:37.594Z,75.27
2022-10-11T03:47:37.597Z,75.27
2022-10-11T03:48:37.569Z,75.27
2022-10-11T03:49:37.553Z,75.38
2022-10-11T03:50:37.544Z,75.27
2022-10-11T03:51:37.539Z,75.38
2022-10-11T03:52:37.526Z,75.27
2022-10-11T03:53:37.512Z,75.17
2022-10-11T03:54:37.507Z,74.97
2022-10-11T03:55:37.504Z,74.87
2022-10-11T03:56:37.480Z,74.97
2022-10-11T03:57:37.473Z,74.87
2022-10-11T03:58:37.463Z,75.07
2022-10-11T03:59:37.460Z,74.97
2022-10-11T04:00:37.451Z,75.07
2022-10-11T04:01:37.445Z,75.07
2022-10-11T04:02:37.457Z,74.56
2022-10-11T04:03:37.426Z,74.46
2022-10-11T04:04:37.394Z,74.35
2022-10-11T04:05:37.391Z,74.56
2022-10-11T04:06:37.380Z,74.76
2022-10-11T04:07:37.366Z,74.15
2022-10-11T04:08:37.356Z,74.49
2022-10-11T04:09:37.347Z,74.46
2022-10-11T04:10:37.345Z,74.66
2022-10-11T04:11:37.352Z,74.56
2022-10-11T04:12:37.310Z,74.46
2022-10-11T04:13:37.299Z,74.26
2022-10-11T04:14:37.290Z,74.05
2022-10-11T04:15:37.284Z,74.05
2022-10-11T04:16:37.268Z,73.64
2022-10-11T04:17:37.259Z,73.85
2022-10-11T04:18:37.259Z,73.85
2022-10-11T04:19:37.241Z,73.94
2022-10-11T04:20:37.239Z,73.74
2022-10-11T04:21:37.219Z,74.05
2022-10-11T04:22:37.220Z,73.85
2022-10-11T04:23:37.200Z,73.54
2022-10-11T04:24:37.188Z,73.54
2022-10-11T04:25:37.179Z,73.94
2022-10-11T04:26:37.170Z,73.74
2022-10-11T04:27:37.155Z,73.85
2022-10-11T04:28:37.305Z,73.85
2022-10-11T04:29:37.139Z,73.85
2022-10-11T04:30:37.128Z,73.85
2022-10-11T04:31:37.115Z,73.85
2022-10-11T04:32:37.109Z,73.94
2022-10-11T04:33:37.098Z,73.85
2022-10-11T04:34:37.081Z,73.74
2022-10-11T04:35:37.073Z,73.85
2022-10-11T04:36:37.064Z,73.88
2022-10-11T04:37:37.054Z,74.29
2022-10-11T04:38:37.041Z,74.84
2022-10-11T04:39:37.031Z,74.94
2022-10-11T04:40:37.022Z,74.63
2022-10-11T04:41:37.025Z,74.8
2022-10-11T04:42:37.013Z,74.6
2022-10-11T04:43:36.990Z,74.29
2022-10-11T04:44:36.984Z,74.49
2022-10-11T04:45:37.234Z,74.6
2022-10-11T04:46:36.957Z,74.69
2022-10-11T04:47:36.951Z,74.6
2022-10-11T04:48:36.940Z,74.29
2022-10-11T04:49:36.923Z,74.29
2022-10-11T04:50:36.913Z,74.49
2022-10-11T04:51:36.909Z,74.29
2022-10-11T04:52:36.898Z,74.19
2022-10-11T04:53:36.886Z,74.19
2022-10-11T04:54:36.917Z,73.98
2022-10-11T04:55:36.862Z,73.98
2022-10-11T04:56:36.853Z,74.08
2022-10-11T04:57:36.840Z,74.08
2022-10-11T04:58:36.843Z,73.98
2022-10-11T04:59:36.814Z,74.43
2022-10-11T05:00:36.825Z,74.63
2022-10-11T05:01:36.798Z,74.32
2022-10-11T05:02:36.785Z,75.07
2022-10-11T05:03:36.792Z,74.66
2022-10-11T05:04:36.761Z,75.48
2022-10-11T05:05:36.755Z,75.69
2022-10-11T05:06:36.741Z,75.89
2022-10-11T05:07:36.734Z,75.69
2022-10-11T05:08:36.731Z,75.79
2022-10-11T05:09:36.729Z,76.44
2022-10-11T05:10:36.704Z,76.44
2022-10-11T05:11:36.698Z,77.29
2022-10-11T05:12:36.678Z,76.95
2022-10-11T05:13:36.671Z,76.95
2022-10-11T05:14:37.179Z,76.4
2022-10-11T05:15:36.648Z,76.31
2022-10-11T05:16:36.634Z,76.65
2022-10-11T05:17:36.634Z,76.75
2022-10-11T05:18:36.615Z,76.65
2022-10-11T05:19:36.606Z,76.44
2022-10-11T05:20:36.596Z,76.54
2022-10-11T05:21:36.607Z,76.24
2022-10-11T05:22:36.571Z,76.24
2022-10-11T05:23:36.568Z,76.31
2022-10-11T05:24:36.558Z,76.51
2022-10-11T05:25:36.545Z,76.1
2022-10-11T05:26:36.532Z,76.14
2022-10-11T05:27:36.525Z,76.51
2022-10-11T05:28:36.529Z,76.4
2022-10-11T05:29:36.500Z,76.31
2022-10-11T05:30:36.490Z,76.1
2022-10-11T05:31:36.479Z,76.1
2022-10-11T05:32:36.469Z,75.96
2022-10-11T05:33:36.460Z,75.55
2022-10-11T05:34:36.448Z,74.87
2022-10-11T05:35:36.446Z,75.18
2022-10-11T05:36:36.438Z,75.28
2022-10-11T05:37:36.425Z,75.28
2022-10-11T05:38:36.406Z,75.69
2022-10-11T05:39:36.407Z,75.48
2022-10-11T05:40:36.382Z,75.79
2022-10-11T05:41:36.372Z,75.59
2022-10-11T05:42:36.369Z,75.59
2022-10-11T05:43:36.357Z,75.38
2022-10-11T05:44:36.341Z,75.28
2022-10-11T05:45:36.338Z,75.48
2022-10-11T05:46:36.326Z,75.48
2022-10-11T05:47:36.310Z,76.24
2022-10-11T05:48:36.303Z,76.85
2022-10-11T05:49:36.293Z,76.85
2022-10-11T05:50:36.282Z,76.34
2022-10-11T05:51:36.273Z,76.54
2022-10-11T05:52:36.257Z,76.51
2022-10-11T05:53:36.257Z,76.14
2022-10-11T05:54:36.240Z,76.65
2022-10-11T05:55:36.229Z,77.06
2022-10-11T05:56:36.221Z,76.75
2022-10-11T05:57:36.231Z,76.61
2022-10-11T05:58:36.195Z,76.4
2022-10-11T05:59:36.187Z,76.2
2022-10-11T06:00:36.177Z,75.89
2022-10-11T06:01:36.169Z,75.86
2022-10-11T06:02:36.153Z,75.65
2022-10-11T06:03:36.150Z,75.35
2022-10-11T06:04:36.151Z,75.24
2022-10-11T06:05:36.133Z,75.04
2022-10-11T06:06:36.120Z,75.14
2022-10-11T06:07:36.131Z,75.04
2022-10-11T06:08:36.102Z,75.14
2022-10-11T06:09:36.095Z,75.04
2022-10-11T06:10:36.081Z,75.14
2022-10-11T06:11:36.065Z,75.35
2022-10-11T06:12:36.049Z,75.1
2022-10-11T06:13:36.040Z,75.1
2022-10-11T06:14:36.030Z,74.9
2022-10-11T06:15:36.026Z,74.8
2022-10-11T06:16:36.009Z,74.6
2022-10-11T06:17:36.027Z,74.19
2022-10-11T06:18:35.992Z,74.39
2022-10-11T06:19:35.978Z,74.35
2022-10-11T06:20:35.968Z,74.15
2022-10-11T06:21:35.968Z,73.85
2022-10-11T06:22:35.947Z,74.26
2022-10-11T06:23:35.936Z,74.26
2022-10-11T06:24:35.925Z,73.85
2022-10-11T06:25:35.915Z,73.74
2022-10-11T06:26:35.923Z,73.71
2022-10-11T06:27:35.893Z,73.44
2022-10-11T06:28:35.887Z,73.64
2022-10-11T06:29:35.911Z,73.74
2022-10-11T06:30:35.884Z,73.85
2022-10-11T06:31:35.850Z,73.64
2022-10-11T06:32:35.860Z,73.74
2022-10-11T06:33:35.834Z,73.74
2022-10-11T06:34:35.827Z,73.74
2022-10-11T06:35:35.812Z,74.05
2022-10-11T06:36:35.800Z,74.08
2022-10-11T06:37:35.791Z,74.8
2022-10-11T06:38:35.782Z,74.8
2022-10-11T06:39:35.772Z,74.56
2022-10-11T06:40:35.779Z,74.39
2022-10-11T06:41:35.756Z,75.14
2022-10-11T06:42:35.740Z,75.35
2022-10-11T06:43:35.726Z,75.72
2022-10-11T06:44:35.722Z,75.68
2022-10-11T06:45:35.706Z,74.97
2022-10-11T06:46:35.697Z,74.94
2022-10-11T06:47:35.688Z,76.23
2022-10-11T06:48:35.675Z,75.82
2022-10-11T06:49:35.666Z,75.59
2022-10-11T06:50:35.654Z,75.93
2022-10-11T06:51:35.653Z,75.93
2022-10-11T06:52:35.632Z,75.89
2022-10-11T06:53:35.625Z,75.48
2022-10-11T06:54:35.654Z,75.14
2022-10-11T06:55:35.598Z,74.73
2022-10-11T06:56:35.619Z,74.84
2022-10-11T06:57:35.578Z,74.43
2022-10-11T06:58:35.568Z,74.22
2022-10-11T06:59:35.555Z,74.32
2022-10-11T07:00:35.563Z,74.97
2022-10-11T07:01:35.543Z,75.34
2022-10-11T07:02:35.530Z,74.93
2022-10-11T07:03:35.527Z,74.9
2022-10-11T07:04:35.532Z,74.49
2022-10-11T07:05:35.494Z,74.25
2022-10-11T07:06:35.502Z,73.98
2022-10-11T07:07:35.473Z,74.49
2022-10-11T07:08:35.476Z,74.29
2022-10-11T07:09:35.463Z,74.29
2022-10-11T07:10:35.438Z,74.46
2022-10-11T07:11:35.429Z,73.68
2022-10-11T07:12:35.416Z,74.49
2022-10-11T07:13:35.446Z,74.15
2022-10-11T07:14:35.397Z,74.15
2022-10-11T07:15:35.383Z,73.84
2022-10-11T07:16:35.392Z,74.05
2022-10-11T07:17:35.369Z,74.32
2022-10-11T07:18:35.428Z,73.88
2022-10-11T07:19:35.363Z,73.54
2022-10-11T07:20:35.345Z,72.48
2022-10-11T07:21:35.363Z,72.14
2022-10-11T07:22:35.325Z,71.7
2022-10-11T07:23:35.438Z,70.51
2022-10-11T07:24:35.319Z,70.54
2022-10-11T07:25:35.291Z,72.21
2022-10-11T07:26:35.307Z,72.41
2022-10-11T07:27:35.266Z,71.56
2022-10-11T07:28:35.252Z,72.65
2022-10-11T07:29:35.238Z,73.23
2022-10-11T07:30:35.232Z,73.36
2022-10-11T07:31:35.219Z,71.43
2022-10-11T07:32:35.212Z,70.21
2022-10-11T07:33:35.196Z,68.59
2022-10-11T07:34:35.190Z,66.24
2022-10-11T07:35:35.179Z,64.02
2022-10-11T07:36:35.167Z,61.53
2022-10-11T07:37:35.177Z,60.44
2022-10-11T07:38:35.156Z,58.74
2022-10-11T07:39:35.144Z,56.97
2022-10-11T07:40:35.175Z,55.61
2022-10-11T07:41:35.137Z,54.38
2022-10-11T07:42:35.104Z,54.08
2022-10-11T07:43:35.091Z,53.12
2022-10-11T07:44:35.090Z,52.8
2022-10-11T07:45:35.077Z,52.17
2022-10-11T07:46:35.067Z,50.96
2022-10-11T07:47:35.055Z,50.96
2022-10-11T07:48:35.049Z,50.96
2022-10-11T07:49:35.033Z,51.24
2022-10-11T07:50:35.014Z,50.62
2022-10-11T07:51:35.024Z,50.09
2022-10-11T07:52:34.998Z,49.99
2022-10-11T07:53:35.002Z,49.79
2022-10-11T07:54:35.003Z,49.89
2022-10-11T07:55:34.999Z,50.34
2022-10-11T07:56:34.964Z,51.29
2022-10-11T07:57:34.968Z,53.45
2022-10-11T07:58:34.946Z,56.9
2022-10-11T07:59:34.929Z,60.5
2022-10-11T08:00:34.925Z,63.46
2022-10-11T08:01:34.928Z,66.19
2022-10-11T08:02:34.903Z,68.92
2022-10-11T08:03:34.909Z,70.21
2022-10-11T08:04:34.881Z,72.01
2022-10-11T08:05:34.898Z,73.02
2022-10-11T08:06:34.853Z,73.67
2022-10-11T08:07:34.840Z,73.97
2022-10-11T08:08:34.838Z,73.84
2022-10-11T08:09:34.882Z,74.08
2022-10-11T08:10:34.849Z,74.76
2022-10-11T08:11:34.799Z,74.79
2022-10-11T08:12:34.799Z,74.79
2022-10-11T08:13:34.778Z,75.1
2022-10-11T08:14:34.788Z,75.1
2022-10-11T08:15:34.766Z,75.71
2022-10-11T08:16:34.743Z,75.81
2022-10-11T08:17:34.749Z,76.12
2022-10-11T08:18:37.661Z,75.47
2022-10-11T08:19:34.743Z,76.01
2022-10-11T08:20:34.700Z,76.22
2022-10-11T08:21:34.815Z,76.53
2022-10-11T08:22:34.693Z,77.14
2022-10-11T08:23:34.682Z,76.83
2022-10-11T08:24:34.680Z,76.62
2022-10-11T08:25:34.670Z,77.03
2022-10-11T08:26:34.654Z,77.03
2022-10-11T08:27:34.627Z,77.78
2022-10-11T08:28:34.640Z,78.36
2022-10-11T08:29:34.720Z,77.4
2022-10-11T08:30:34.592Z,76.56
2022-10-11T08:31:34.606Z,76.11
2022-10-11T08:32:34.603Z,75.37
2022-10-11T08:33:34.627Z,75.09
2022-10-11T08:34:34.552Z,75.7
2022-10-11T08:35:34.570Z,75.95
2022-10-11T08:36:34.554Z,76.11
2022-10-11T08:37:34.525Z,75.91
2022-10-11T08:38:34.522Z,76.21
2022-10-11T08:39:34.498Z,76.11
2022-10-11T08:40:34.493Z,75.7
2022-10-11T08:41:34.489Z,76.11
2022-10-11T08:42:34.465Z,75.87
2022-10-11T08:43:34.462Z,76.11
2022-10-11T08:44:34.453Z,76.65
2022-10-11T08:45:34.457Z,77.17
2022-10-11T08:46:34.422Z,77.87
2022-10-11T08:47:34.417Z,77.53
2022-10-11T08:48:34.634Z,77.23
2022-10-11T08:49:34.478Z,77.2
2022-10-11T08:50:34.393Z,76.38
2022-10-11T08:51:34.373Z,76.68
2022-10-11T08:52:34.362Z,76.82
2022-10-11T08:53:34.351Z,76.96
2022-10-11T08:54:34.343Z,77.64
2022-10-11T08:55:34.353Z,77.84
2022-10-11T08:56:34.346Z,77.74
2022-10-11T08:57:34.348Z,77.16
2022-10-11T08:58:34.350Z,76.01
2022-10-11T08:59:34.300Z,75.12
2022-10-11T09:00:34.274Z,74.21
2022-10-11T09:01:34.286Z,73.57
2022-10-11T09:02:34.293Z,73.16
2022-10-11T09:03:34.264Z,72.82
2022-10-11T09:04:34.478Z,71.91
2022-10-11T09:05:34.248Z,72.34
2022-10-11T09:06:34.222Z,72.11
2022-10-11T09:07:34.224Z,72.21
2022-10-11T09:08:34.193Z,71.5
2022-10-11T09:09:34.177Z,72.14
2022-10-11T09:10:34.205Z,72.01
2022-10-11T09:11:34.158Z,71.88
2022-10-11T09:12:34.148Z,71.26
2022-10-11T09:13:34.139Z,71.77
2022-10-11T09:14:34.176Z,71.26
2022-10-11T09:15:35.128Z,71.91
2022-10-11T09:16:34.129Z,72.01
2022-10-11T09:17:34.126Z,72.25
2022-10-11T09:18:34.172Z,72.61
2022-10-11T09:19:34.082Z,71.47
2022-10-11T09:20:34.079Z,71.03
2022-10-11T09:21:34.052Z,70.72
2022-10-11T09:22:34.104Z,70.62
2022-10-11T09:23:34.035Z,70.59
2022-10-11T09:24:34.033Z,70.29
2022-10-11T09:25:34.090Z,70.05
2022-10-11T09:26:34.007Z,69.85
2022-10-11T09:27:34.019Z,69.88
2022-10-11T09:28:33.984Z,69.74
2022-10-11T09:29:34.030Z,69.61
2022-10-11T09:30:33.958Z,69.31
2022-10-11T09:31:33.955Z,69.18
2022-10-11T09:32:33.946Z,68.87
2022-10-11T09:33:33.928Z,68.37
2022-10-11T09:34:33.934Z,68.67
2022-10-11T09:35:33.905Z,68.13
2022-10-11T09:36:33.894Z,68.13
2022-10-11T09:37:33.915Z,67.93
2022-10-11T09:38:33.912Z,67.72
2022-10-11T09:39:33.959Z,67.63
2022-10-11T09:40:33.857Z,67.19
2022-10-11T09:41:33.849Z,67.09
2022-10-11T09:42:33.889Z,66.89
2022-10-11T09:43:33.840Z,66.41
2022-10-11T09:44:33.809Z,67.59
2022-10-11T09:45:33.801Z,67.99
2022-10-11T09:46:33.790Z,67.18
2022-10-11T09:47:33.798Z,67.69
2022-10-11T09:48:33.767Z,66.98
2022-10-11T09:49:33.759Z,67.39
2022-10-11T09:50:33.747Z,67.15
2022-10-11T09:51:33.740Z,66.85
2022-10-11T09:52:33.736Z,67.25
2022-10-11T09:53:33.738Z,67.66
2022-10-11T09:54:33.710Z,68.1
2022-10-11T09:55:33.707Z,68.5
2022-10-11T09:56:33.742Z,68.1
2022-10-11T09:57:33.671Z,67.46
2022-10-11T09:58:33.667Z,67.02
2022-10-11T09:59:33.652Z,67.05
2022-10-11T10:00:33.649Z,66.95
2022-10-11T10:01:33.745Z,68.3
2022-10-11T10:02:33.619Z,68.57
2022-10-11T10:03:33.625Z,67.69
2022-10-11T10:04:33.660Z,66.99
2022-10-11T10:05:33.588Z,66.25
2022-10-11T10:06:33.583Z,65.71
2022-10-11T10:07:33.570Z,64.67
2022-10-11T10:08:33.574Z,64.4
2022-10-11T10:09:33.556Z,64.4
2022-10-11T10:10:33.548Z,64.17
2022-10-11T10:11:33.529Z,64.27
2022-10-11T10:12:33.521Z,64
2022-10-11T10:13:33.515Z,65.67
2022-10-11T10:14:33.495Z,66.08
2022-10-11T10:15:33.479Z,65.98
2022-10-11T10:16:33.545Z,65.84
2022-10-11T10:17:33.502Z,65.24
2022-10-11T10:18:33.458Z,65.18
2022-10-11T10:19:33.453Z,64.44
2022-10-11T10:20:33.433Z,63.23
2022-10-11T10:21:33.422Z,63.56
2022-10-11T10:22:33.424Z,64.3
2022-10-11T10:23:33.443Z,64.81
2022-10-11T10:24:33.579Z,65.27
2022-10-11T10:25:33.386Z,65.98
2022-10-11T10:26:33.381Z,66.18
2022-10-11T10:27:33.359Z,66.18
2022-10-11T10:28:33.349Z,66.18
2022-10-11T10:29:33.345Z,65.64
2022-10-11T10:30:33.337Z,65.75
2022-10-11T10:31:33.360Z,66.05
2022-10-11T10:32:33.333Z,66.69
2022-10-11T10:33:33.297Z,66.45
2022-10-11T10:34:33.334Z,66.02
2022-10-11T10:35:33.284Z,65.68
2022-10-11T10:36:41.204Z,63.36
2022-10-11T10:37:41.006Z,62.55
2022-10-11T10:38:40.859Z,62.65
2022-10-11T10:39:41.926Z,62.45
2022-10-11T10:40:41.879Z,62.25
2022-10-11T10:41:41.904Z,62.45
2022-10-11T10:43:52.260Z,61.79
2022-10-11T10:45:02.103Z,61.16
2022-10-11T10:46:00.142Z,61.05
2022-10-11T10:47:01.714Z,60.85
2022-10-11T10:47:59.909Z,61.13
2022-10-11T10:49:01.227Z,60.69
2022-10-11T10:49:59.789Z,60.16
2022-10-11T10:50:59.291Z,59.76
2022-10-11T10:51:59.796Z,59.46
2022-10-11T10:53:00.783Z,59.69
2022-10-11T10:53:59.728Z,60.6
2022-10-11T10:55:00.923Z,61.13
2022-10-11T10:55:59.764Z,61.73
2022-10-11T10:58:08.565Z,61.43
2022-10-11T10:59:16.101Z,61.53
2022-10-11T11:00:17.034Z,61.73
2022-10-11T11:01:17.048Z,60.72
2022-10-11T11:02:17.048Z,60.55
2022-10-11T11:03:17.037Z,60.45
2022-10-11T11:04:17.014Z,60.02
2022-10-11T11:05:17.008Z,59.59
2022-10-11T11:06:16.012Z,59.36
2022-10-11T11:07:08.375Z,59.26
2022-10-11T11:08:15.999Z,59.66
2022-10-11T11:10:26.341Z,58.73
2022-10-11T11:11:34.993Z,58.8
2022-10-11T11:12:33.945Z,57.9
2022-10-11T11:13:26.247Z,57.97
2022-10-11T11:14:35.204Z,57.14
2022-10-11T11:15:34.917Z,56.84
2022-10-11T11:16:33.865Z,56.54
2022-10-11T11:17:33.826Z,56.43
2022-10-11T11:18:35.085Z,56.23
2022-10-11T11:19:35.871Z,55.91
2022-10-11T11:20:35.125Z,55.4
2022-10-11T11:22:45.944Z,55.4
2022-10-11T11:25:06.322Z,54.6
2022-10-11T11:26:13.970Z,55.1
2022-10-11T11:27:06.315Z,54.5
2022-10-11T11:28:06.332Z,54.7
2022-10-11T11:30:24.771Z,52.87
2022-10-11T11:32:42.742Z,49.09
2022-10-11T11:33:50.300Z,49.9
2022-10-11T11:34:51.564Z,50.07
2022-10-11T11:35:42.680Z,48.93
2022-10-11T11:36:42.650Z,48.16
2022-10-11T11:37:52.043Z,47.24
2022-10-11T11:38:51.506Z,46.94
2022-10-11T11:39:51.408Z,48.05
2022-10-11T11:40:50.277Z,48.63
2022-10-11T11:41:42.615Z,47.38
2022-10-11T11:42:50.221Z,45.7
2022-10-11T11:43:42.777Z,44.36
2022-10-11T11:46:35.196Z,42.37
2022-10-11T11:47:43.791Z,41.47
2022-10-11T11:48:35.181Z,40.15
2022-10-11T11:49:35.151Z,40.17
2022-10-11T11:50:35.142Z,39.93
2022-10-11T11:51:35.137Z,38.34
2022-10-11T11:52:35.135Z,39.83
2022-10-11T11:53:35.120Z,41.89
2022-10-11T11:54:35.106Z,43.13
2022-10-11T11:55:35.225Z,43.68
2022-10-11T11:56:35.110Z,43.02
2022-10-11T11:57:35.136Z,41.5
2022-10-11T11:58:35.061Z,42.23
2022-10-11T11:59:35.170Z,42.99
2022-10-11T12:00:36.035Z,43.41
2022-10-11T12:01:35.031Z,44.24
2022-10-11T12:02:35.080Z,44.46
2022-10-11T12:03:35.004Z,44.2
2022-10-11T12:04:34.995Z,42.53
2022-10-11T12:05:35.244Z,40.96
2022-10-11T12:06:34.973Z,39.61
2022-10-11T12:07:34.981Z,39.06
2022-10-11T12:08:34.963Z,38.37
2022-10-11T12:09:34.945Z,38.6
2022-10-11T12:10:34.953Z,40.05
2022-10-11T12:11:34.923Z,40.47
2022-10-11T12:12:34.916Z,40.98
2022-10-11T12:13:34.909Z,40.44
2022-10-11T12:14:34.889Z,38.59
2022-10-11T12:15:34.880Z,38.31
2022-10-11T12:16:34.872Z,37.81
2022-10-11T12:17:34.860Z,37.26
2022-10-11T12:18:34.850Z,0
2022-10-11T12:19:34.838Z,39.23
2022-10-11T12:20:34.833Z,39.71
2022-10-11T12:21:34.825Z,39.43
2022-10-11T12:22:34.823Z,37.56
2022-10-11T12:23:34.802Z,36.12
2022-10-11T12:24:34.791Z,35.43
2022-10-11T12:25:34.776Z,35.86
2022-10-11T12:26:34.771Z,36.59
2022-10-11T12:27:34.756Z,0
2022-10-11T12:28:34.766Z,0
2022-10-11T12:29:34.736Z,0
2022-10-11T12:30:34.743Z,0
2022-10-11T12:31:34.720Z,0
2022-10-11T12:32:34.707Z,0
2022-10-11T12:33:34.692Z,0
2022-10-11T12:34:34.692Z,0
2022-10-11T12:35:34.676Z,0
2022-10-11T12:36:34.681Z,0
2022-10-11T12:37:34.658Z,0
2022-10-11T12:38:34.643Z,0
2022-10-11T12:39:34.636Z,0
2022-10-11T12:40:34.627Z,0
2022-10-11T12:41:42.234Z,0
2022-10-11T12:42:43.351Z,0
2022-10-11T12:43:34.596Z,0
2022-10-11T12:44:34.638Z,0
2022-10-11T12:45:34.587Z,0
2022-10-11T12:46:43.520Z,0
2022-10-11T12:47:34.643Z,0
2022-10-11T12:48:34.550Z,0
2022-10-11T12:49:34.556Z,0
2022-10-11T12:50:34.523Z,0
2022-10-11T12:51:34.505Z,0
2022-10-11T12:52:34.499Z,0
2022-10-11T12:53:34.515Z,0
2022-10-11T12:54:34.494Z,51.59
2022-10-11T12:55:34.465Z,52.51
2022-10-11T12:56:34.461Z,53.02
2022-10-11T12:57:34.443Z,53.2
2022-10-11T12:58:34.440Z,53.52
2022-10-11T12:59:34.535Z,52.62
2022-10-11T13:00:34.414Z,51.71
2022-10-11T13:01:34.461Z,52.31
2022-10-11T13:02:34.395Z,52.09
2022-10-11T13:03:34.539Z,52.09
2022-10-11T13:04:34.380Z,52.59
2022-10-11T13:05:37.276Z,52.57
2022-10-11T13:06:34.378Z,52.26
2022-10-11T13:07:34.343Z,52.17
2022-10-11T13:08:34.338Z,51.81
2022-10-11T13:09:34.323Z,52.34